sensor_id;sensor_type;location;lat;lon;timestamp;P1;durP1;ratioP1;P2;durP2;ratioP2
6947;SDS011;3513;47.664;9.162;2023-12-22T00:02:18;4.30;;;1.03;;
6947;SDS011;3513;47.664;9.162;2023-12-22T00:04:45;2.50;;;1.20;;
6947;SDS011;3513;47.664;9.162;2023-12-22T00:07:10;4.73;;;0.90;;
6947;SDS011;3513;47.664;9.162;2023-12-22T00:09:36;1.90;;;0.97;;
6947;SDS011;3513;47.664;9.162;2023-12-22T00:12:01;4.30;;;1.27;;
6947;SDS011;3513;47.664;9.162;2023-12-22T00:14:28;4.50;;;1.27;;
6947;SDS011;3513;47.664;9.162;2023-12-22T00:16:53;12.03;;;1.30;;
6947;SDS011;3513;47.664;9.162;2023-12-22T00:19:19;1.50;;;0.80;;
6947;SDS011;3513;47.664;9.162;2023-12-22T00:21:44;2.30;;;0.80;;
6947;SDS011;3513;47.664;9.162;2023-12-22T00:24:10;2.80;;;1.60;;
6947;SDS011;3513;47.664;9.162;2023-12-22T00:26:35;7.90;;;1.73;;
6947;SDS011;3513;47.664;9.162;2023-12-22T00:29:01;2.13;;;1.43;;
6947;SDS011;3513;47.664;9.162;2023-12-22T00:31:26;2.77;;;1.43;;
6947;SDS011;3513;47.664;9.162;2023-12-22T00:33:52;6.20;;;1.23;;
6947;SDS011;3513;47.664;9.162;2023-12-22T00:36:17;3.30;;;1.67;;
6947;SDS011;3513;47.664;9.162;2023-12-22T00:38:45;3.00;;;1.27;;
6947;SDS011;3513;47.664;9.162;2023-12-22T00:41:10;5.43;;;1.40;;
6947;SDS011;3513;47.664;9.162;2023-12-22T00:43:36;2.00;;;1.30;;
6947;SDS011;3513;47.664;9.162;2023-12-22T00:46:02;6.83;;;1.47;;
6947;SDS011;3513;47.664;9.162;2023-12-22T00:48:27;3.30;;;1.07;;
6947;SDS011;3513;47.664;9.162;2023-12-22T00:50:53;10.30;;;2.10;;
6947;SDS011;3513;47.664;9.162;2023-12-22T00:53:19;3.00;;;1.77;;
6947;SDS011;3513;47.664;9.162;2023-12-22T00:55:44;3.80;;;1.20;;
6947;SDS011;3513;47.664;9.162;2023-12-22T00:58:10;2.17;;;0.83;;
6947;SDS011;3513;47.664;9.162;2023-12-22T01:00:36;4.33;;;0.97;;
6947;SDS011;3513;47.664;9.162;2023-12-22T01:03:02;5.13;;;0.93;;
6947;SDS011;3513;47.664;9.162;2023-12-22T01:05:28;2.00;;;0.83;;
6947;SDS011;3513;47.664;9.162;2023-12-22T01:07:53;1.33;;;0.60;;
6947;SDS011;3513;47.664;9.162;2023-12-22T01:10:19;1.03;;;0.63;;
6947;SDS011;3513;47.664;9.162;2023-12-22T01:12:44;0.90;;;0.70;;
6947;SDS011;3513;47.664;9.162;2023-12-22T01:15:10;2.53;;;0.70;;
6947;SDS011;3513;47.664;9.162;2023-12-22T01:17:35;0.70;;;0.60;;
6947;SDS011;3513;47.664;9.162;2023-12-22T01:20:02;3.13;;;0.90;;
6947;SDS011;3513;47.664;9.162;2023-12-22T01:22:28;3.20;;;0.97;;
6947;SDS011;3513;47.664;9.162;2023-12-22T01:24:55;3.90;;;0.70;;
6947;SDS011;3513;47.664;9.162;2023-12-22T01:27:21;1.23;;;0.63;;
6947;SDS011;3513;47.664;9.162;2023-12-22T01:29:47;1.13;;;0.70;;
6947;SDS011;3513;47.664;9.162;2023-12-22T01:32:12;2.17;;;0.70;;
6947;SDS011;3513;47.664;9.162;2023-12-22T01:34:38;2.77;;;1.20;;
6947;SDS011;3513;47.664;9.162;2023-12-22T01:37:03;0.97;;;0.53;;
6947;SDS011;3513;47.664;9.162;2023-12-22T01:39:29;14.70;;;0.90;;
6947;SDS011;3513;47.664;9.162;2023-12-22T01:41:54;1.70;;;0.77;;
6947;SDS011;3513;47.664;9.162;2023-12-22T01:44:20;2.30;;;0.90;;
6947;SDS011;3513;47.664;9.162;2023-12-22T01:46:46;2.97;;;0.87;;
6947;SDS011;3513;47.664;9.162;2023-12-22T01:49:11;5.33;;;0.80;;
6947;SDS011;3513;47.664;9.162;2023-12-22T01:51:38;2.90;;;0.90;;
6947;SDS011;3513;47.664;9.162;2023-12-22T01:54:05;2.50;;;0.60;;
6947;SDS011;3513;47.664;9.162;2023-12-22T01:56:31;1.90;;;0.70;;
6947;SDS011;3513;47.664;9.162;2023-12-22T01:58:59;2.80;;;1.07;;
6947;SDS011;3513;47.664;9.162;2023-12-22T02:01:27;3.90;;;0.70;;
6947;SDS011;3513;47.664;9.162;2023-12-22T02:03:53;2.50;;;1.00;;
6947;SDS011;3513;47.664;9.162;2023-12-22T02:06:19;1.60;;;0.70;;
6947;SDS011;3513;47.664;9.162;2023-12-22T02:08:49;7.40;;;0.87;;
6947;SDS011;3513;47.664;9.162;2023-12-22T02:11:15;3.33;;;0.80;;
6947;SDS011;3513;47.664;9.162;2023-12-22T02:13:42;1.70;;;0.70;;
6947;SDS011;3513;47.664;9.162;2023-12-22T02:16:11;2.87;;;0.90;;
6947;SDS011;3513;47.664;9.162;2023-12-22T02:18:43;4.40;;;0.90;;
6947;SDS011;3513;47.664;9.162;2023-12-22T02:21:15;3.80;;;0.83;;
6947;SDS011;3513;47.664;9.162;2023-12-22T02:23:41;4.53;;;0.90;;
6947;SDS011;3513;47.664;9.162;2023-12-22T02:26:10;6.10;;;0.70;;
6947;SDS011;3513;47.664;9.162;2023-12-22T02:28:42;1.87;;;1.27;;
6947;SDS011;3513;47.664;9.162;2023-12-22T02:31:15;0.90;;;0.60;;
6947;SDS011;3513;47.664;9.162;2023-12-22T02:33:43;7.60;;;1.63;;
6947;SDS011;3513;47.664;9.162;2023-12-22T02:36:10;2.33;;;1.07;;
6947;SDS011;3513;47.664;9.162;2023-12-22T02:38:38;5.80;;;1.03;;
6947;SDS011;3513;47.664;9.162;2023-12-22T02:41:05;8.70;;;1.43;;
6947;SDS011;3513;47.664;9.162;2023-12-22T02:43:31;1.57;;;0.60;;
6947;SDS011;3513;47.664;9.162;2023-12-22T02:45:57;5.03;;;1.23;;
6947;SDS011;3513;47.664;9.162;2023-12-22T02:48:23;9.03;;;1.40;;
6947;SDS011;3513;47.664;9.162;2023-12-22T02:50:48;5.47;;;1.57;;
6947;SDS011;3513;47.664;9.162;2023-12-22T02:53:14;4.83;;;1.20;;
6947;SDS011;3513;47.664;9.162;2023-12-22T02:55:39;6.20;;;1.37;;
6947;SDS011;3513;47.664;9.162;2023-12-22T02:58:05;8.13;;;2.00;;
6947;SDS011;3513;47.664;9.162;2023-12-22T03:00:30;2.23;;;1.00;;
6947;SDS011;3513;47.664;9.162;2023-12-22T03:02:56;5.13;;;0.90;;
6947;SDS011;3513;47.664;9.162;2023-12-22T03:05:21;8.63;;;1.47;;
6947;SDS011;3513;47.664;9.162;2023-12-22T03:07:47;7.30;;;1.10;;
6947;SDS011;3513;47.664;9.162;2023-12-22T03:10:12;3.53;;;1.57;;
6947;SDS011;3513;47.664;9.162;2023-12-22T03:12:38;3.67;;;1.70;;
6947;SDS011;3513;47.664;9.162;2023-12-22T03:15:04;9.73;;;1.60;;
6947;SDS011;3513;47.664;9.162;2023-12-22T03:17:30;9.40;;;2.03;;
6947;SDS011;3513;47.664;9.162;2023-12-22T03:19:56;4.00;;;1.37;;
6947;SDS011;3513;47.664;9.162;2023-12-22T03:22:21;3.97;;;2.00;;
6947;SDS011;3513;47.664;9.162;2023-12-22T03:24:47;10.07;;;1.93;;
6947;SDS011;3513;47.664;9.162;2023-12-22T03:27:12;5.37;;;1.23;;
6947;SDS011;3513;47.664;9.162;2023-12-22T03:29:41;4.37;;;1.30;;
6947;SDS011;3513;47.664;9.162;2023-12-22T03:32:07;4.17;;;1.50;;
6947;SDS011;3513;47.664;9.162;2023-12-22T03:34:33;4.33;;;2.00;;
6947;SDS011;3513;47.664;9.162;2023-12-22T03:36:58;2.93;;;1.40;;
6947;SDS011;3513;47.664;9.162;2023-12-22T03:39:24;10.67;;;3.17;;
6947;SDS011;3513;47.664;9.162;2023-12-22T03:41:50;11.00;;;1.70;;
6947;SDS011;3513;47.664;9.162;2023-12-22T03:44:15;7.23;;;2.03;;
6947;SDS011;3513;47.664;9.162;2023-12-22T03:46:42;4.10;;;1.70;;
6947;SDS011;3513;47.664;9.162;2023-12-22T03:49:07;8.10;;;1.63;;
6947;SDS011;3513;47.664;9.162;2023-12-22T03:51:33;11.13;;;2.80;;
6947;SDS011;3513;47.664;9.162;2023-12-22T03:53:58;4.43;;;1.80;;
6947;SDS011;3513;47.664;9.162;2023-12-22T03:56:24;4.73;;;1.43;;
6947;SDS011;3513;47.664;9.162;2023-12-22T03:58:49;6.60;;;1.17;;
6947;SDS011;3513;47.664;9.162;2023-12-22T04:01:15;3.17;;;0.90;;
6947;SDS011;3513;47.664;9.162;2023-12-22T04:03:40;3.80;;;1.50;;
6947;SDS011;3513;47.664;9.162;2023-12-22T04:06:06;4.23;;;1.10;;
6947;SDS011;3513;47.664;9.162;2023-12-22T04:08:32;3.40;;;1.00;;
6947;SDS011;3513;47.664;9.162;2023-12-22T04:10:57;1.67;;;0.97;;
6947;SDS011;3513;47.664;9.162;2023-12-22T04:13:23;1.77;;;0.80;;
6947;SDS011;3513;47.664;9.162;2023-12-22T04:15:48;17.77;;;1.37;;
6947;SDS011;3513;47.664;9.162;2023-12-22T04:18:14;3.33;;;1.10;;
6947;SDS011;3513;47.664;9.162;2023-12-22T04:20:39;6.70;;;1.03;;
6947;SDS011;3513;47.664;9.162;2023-12-22T04:23:05;5.30;;;1.17;;
6947;SDS011;3513;47.664;9.162;2023-12-22T04:25:31;2.00;;;1.10;;
6947;SDS011;3513;47.664;9.162;2023-12-22T04:27:56;2.60;;;0.97;;
6947;SDS011;3513;47.664;9.162;2023-12-22T04:30:22;2.60;;;0.97;;
6947;SDS011;3513;47.664;9.162;2023-12-22T04:32:47;3.60;;;1.27;;
6947;SDS011;3513;47.664;9.162;2023-12-22T04:35:13;2.47;;;0.70;;
6947;SDS011;3513;47.664;9.162;2023-12-22T04:37:38;5.77;;;1.37;;
6947;SDS011;3513;47.664;9.162;2023-12-22T04:40:04;2.00;;;0.93;;
6947;SDS011;3513;47.664;9.162;2023-12-22T04:42:30;2.67;;;0.60;;
6947;SDS011;3513;47.664;9.162;2023-12-22T04:44:56;3.43;;;1.10;;
6947;SDS011;3513;47.664;9.162;2023-12-22T04:47:22;5.30;;;1.00;;
6947;SDS011;3513;47.664;9.162;2023-12-22T04:49:47;1.50;;;0.70;;
6947;SDS011;3513;47.664;9.162;2023-12-22T04:52:13;1.60;;;0.90;;
6947;SDS011;3513;47.664;9.162;2023-12-22T04:54:38;2.60;;;0.87;;
6947;SDS011;3513;47.664;9.162;2023-12-22T04:57:04;2.10;;;0.87;;
6947;SDS011;3513;47.664;9.162;2023-12-22T04:59:30;2.27;;;0.80;;
6947;SDS011;3513;47.664;9.162;2023-12-22T05:01:55;6.10;;;0.90;;
6947;SDS011;3513;47.664;9.162;2023-12-22T05:04:21;2.70;;;1.00;;
6947;SDS011;3513;47.664;9.162;2023-12-22T05:06:47;2.90;;;1.17;;
6947;SDS011;3513;47.664;9.162;2023-12-22T05:09:13;3.57;;;1.17;;
6947;SDS011;3513;47.664;9.162;2023-12-22T05:11:38;3.03;;;0.80;;
6947;SDS011;3513;47.664;9.162;2023-12-22T05:14:04;7.00;;;1.67;;
6947;SDS011;3513;47.664;9.162;2023-12-22T05:16:29;4.77;;;1.30;;
6947;SDS011;3513;47.664;9.162;2023-12-22T05:18:57;5.90;;;1.30;;
6947;SDS011;3513;47.664;9.162;2023-12-22T05:21:23;10.33;;;1.27;;
6947;SDS011;3513;47.664;9.162;2023-12-22T05:23:48;11.10;;;1.50;;
6947;SDS011;3513;47.664;9.162;2023-12-22T05:26:18;3.00;;;1.03;;
6947;SDS011;3513;47.664;9.162;2023-12-22T05:28:48;5.27;;;1.33;;
6947;SDS011;3513;47.664;9.162;2023-12-22T05:31:16;2.73;;;1.10;;
6947;SDS011;3513;47.664;9.162;2023-12-22T05:33:42;4.90;;;2.13;;
6947;SDS011;3513;47.664;9.162;2023-12-22T05:36:08;4.33;;;1.40;;
6947;SDS011;3513;47.664;9.162;2023-12-22T05:38:37;4.30;;;0.80;;
6947;SDS011;3513;47.664;9.162;2023-12-22T05:41:03;2.90;;;1.30;;
6947;SDS011;3513;47.664;9.162;2023-12-22T05:43:30;9.77;;;1.83;;
6947;SDS011;3513;47.664;9.162;2023-12-22T05:45:55;5.10;;;1.10;;
6947;SDS011;3513;47.664;9.162;2023-12-22T05:48:21;2.27;;;1.10;;
6947;SDS011;3513;47.664;9.162;2023-12-22T05:50:47;2.20;;;1.00;;
6947;SDS011;3513;47.664;9.162;2023-12-22T05:53:13;7.20;;;1.13;;
6947;SDS011;3513;47.664;9.162;2023-12-22T05:55:38;3.90;;;1.20;;
6947;SDS011;3513;47.664;9.162;2023-12-22T05:58:04;4.00;;;0.80;;
6947;SDS011;3513;47.664;9.162;2023-12-22T06:00:30;3.63;;;1.00;;
6947;SDS011;3513;47.664;9.162;2023-12-22T06:02:56;4.37;;;1.47;;
6947;SDS011;3513;47.664;9.162;2023-12-22T06:05:21;9.27;;;1.87;;
6947;SDS011;3513;47.664;9.162;2023-12-22T06:07:47;6.27;;;2.00;;
6947;SDS011;3513;47.664;9.162;2023-12-22T06:10:12;8.60;;;2.10;;
6947;SDS011;3513;47.664;9.162;2023-12-22T06:12:38;13.93;;;1.70;;
6947;SDS011;3513;47.664;9.162;2023-12-22T06:15:04;9.33;;;1.53;;
6947;SDS011;3513;47.664;9.162;2023-12-22T06:17:30;9.73;;;1.93;;
6947;SDS011;3513;47.664;9.162;2023-12-22T06:19:55;6.80;;;1.70;;
6947;SDS011;3513;47.664;9.162;2023-12-22T06:22:21;6.60;;;1.53;;
6947;SDS011;3513;47.664;9.162;2023-12-22T06:24:48;9.90;;;2.90;;
6947;SDS011;3513;47.664;9.162;2023-12-22T06:27:13;6.53;;;1.80;;
6947;SDS011;3513;47.664;9.162;2023-12-22T06:29:39;6.07;;;1.77;;
6947;SDS011;3513;47.664;9.162;2023-12-22T06:32:04;11.57;;;2.33;;
6947;SDS011;3513;47.664;9.162;2023-12-22T06:34:31;11.27;;;2.40;;
6947;SDS011;3513;47.664;9.162;2023-12-22T06:36:57;9.77;;;2.70;;
6947;SDS011;3513;47.664;9.162;2023-12-22T06:39:22;15.03;;;2.50;;
6947;SDS011;3513;47.664;9.162;2023-12-22T06:41:48;8.77;;;2.77;;
6947;SDS011;3513;47.664;9.162;2023-12-22T06:44:13;18.83;;;2.40;;
6947;SDS011;3513;47.664;9.162;2023-12-22T06:46:39;15.27;;;2.80;;
6947;SDS011;3513;47.664;9.162;2023-12-22T06:49:04;15.60;;;3.30;;
6947;SDS011;3513;47.664;9.162;2023-12-22T06:51:30;9.93;;;2.67;;
6947;SDS011;3513;47.664;9.162;2023-12-22T06:53:58;13.43;;;2.87;;
6947;SDS011;3513;47.664;9.162;2023-12-22T06:56:25;11.97;;;2.47;;
6947;SDS011;3513;47.664;9.162;2023-12-22T06:58:52;23.60;;;4.07;;
6947;SDS011;3513;47.664;9.162;2023-12-22T07:03:47;15.13;;;2.90;;
6947;SDS011;3513;47.664;9.162;2023-12-22T07:06:17;14.80;;;2.80;;
6947;SDS011;3513;47.664;9.162;2023-12-22T07:08:43;5.57;;;2.07;;
6947;SDS011;3513;47.664;9.162;2023-12-22T07:11:09;14.30;;;2.30;;
6947;SDS011;3513;47.664;9.162;2023-12-22T07:13:36;11.47;;;3.53;;
6947;SDS011;3513;47.664;9.162;2023-12-22T07:16:02;12.07;;;2.53;;
6947;SDS011;3513;47.664;9.162;2023-12-22T07:18:28;13.20;;;3.23;;
6947;SDS011;3513;47.664;9.162;2023-12-22T07:20:57;12.30;;;3.40;;
6947;SDS011;3513;47.664;9.162;2023-12-22T07:23:23;12.07;;;2.57;;
6947;SDS011;3513;47.664;9.162;2023-12-22T07:25:49;9.93;;;2.70;;
6947;SDS011;3513;47.664;9.162;2023-12-22T07:28:15;10.87;;;2.03;;
6947;SDS011;3513;47.664;9.162;2023-12-22T07:30:40;11.57;;;2.90;;
6947;SDS011;3513;47.664;9.162;2023-12-22T07:33:06;6.57;;;2.27;;
6947;SDS011;3513;47.664;9.162;2023-12-22T07:35:32;15.33;;;1.83;;
6947;SDS011;3513;47.664;9.162;2023-12-22T07:37:58;18.73;;;2.10;;
6947;SDS011;3513;47.664;9.162;2023-12-22T07:40:24;10.40;;;2.40;;
6947;SDS011;3513;47.664;9.162;2023-12-22T07:42:49;11.33;;;3.53;;
6947;SDS011;3513;47.664;9.162;2023-12-22T07:45:15;7.63;;;2.03;;
6947;SDS011;3513;47.664;9.162;2023-12-22T07:47:41;23.53;;;2.67;;
6947;SDS011;3513;47.664;9.162;2023-12-22T07:50:07;5.30;;;1.73;;
6947;SDS011;3513;47.664;9.162;2023-12-22T07:52:33;7.53;;;1.93;;
6947;SDS011;3513;47.664;9.162;2023-12-22T07:55:07;5.37;;;2.23;;
6947;SDS011;3513;47.664;9.162;2023-12-22T07:57:36;12.33;;;2.53;;
6947;SDS011;3513;47.664;9.162;2023-12-22T08:00:03;18.97;;;3.30;;
6947;SDS011;3513;47.664;9.162;2023-12-22T08:02:29;15.33;;;2.37;;
6947;SDS011;3513;47.664;9.162;2023-12-22T08:04:55;8.53;;;2.23;;
6947;SDS011;3513;47.664;9.162;2023-12-22T08:07:21;10.80;;;2.40;;
6947;SDS011;3513;47.664;9.162;2023-12-22T08:09:46;17.40;;;2.80;;
6947;SDS011;3513;47.664;9.162;2023-12-22T08:12:12;15.77;;;2.40;;
6947;SDS011;3513;47.664;9.162;2023-12-22T08:14:37;14.90;;;2.37;;
6947;SDS011;3513;47.664;9.162;2023-12-22T08:17:03;11.63;;;2.00;;
6947;SDS011;3513;47.664;9.162;2023-12-22T08:19:29;21.83;;;3.07;;
6947;SDS011;3513;47.664;9.162;2023-12-22T08:21:54;13.23;;;2.90;;
6947;SDS011;3513;47.664;9.162;2023-12-22T08:24:20;6.70;;;2.30;;
6947;SDS011;3513;47.664;9.162;2023-12-22T08:26:46;22.53;;;2.20;;
6947;SDS011;3513;47.664;9.162;2023-12-22T08:29:12;18.23;;;2.77;;
6947;SDS011;3513;47.664;9.162;2023-12-22T08:31:37;11.27;;;2.60;;
6947;SDS011;3513;47.664;9.162;2023-12-22T08:34:03;8.87;;;2.63;;
6947;SDS011;3513;47.664;9.162;2023-12-22T08:36:29;11.60;;;2.67;;
6947;SDS011;3513;47.664;9.162;2023-12-22T08:38:54;11.00;;;3.30;;
6947;SDS011;3513;47.664;9.162;2023-12-22T08:41:20;14.77;;;2.90;;
6947;SDS011;3513;47.664;9.162;2023-12-22T08:43:45;14.53;;;2.40;;
6947;SDS011;3513;47.664;9.162;2023-12-22T08:46:11;12.00;;;3.10;;
6947;SDS011;3513;47.664;9.162;2023-12-22T08:48:37;4.40;;;1.40;;
6947;SDS011;3513;47.664;9.162;2023-12-22T08:51:03;18.53;;;2.33;;
6947;SDS011;3513;47.664;9.162;2023-12-22T08:53:29;17.93;;;2.90;;
6947;SDS011;3513;47.664;9.162;2023-12-22T08:55:58;16.53;;;2.60;;
6947;SDS011;3513;47.664;9.162;2023-12-22T08:58:24;24.60;;;2.53;;
6947;SDS011;3513;47.664;9.162;2023-12-22T09:00:51;22.80;;;3.63;;
6947;SDS011;3513;47.664;9.162;2023-12-22T09:03:16;7.83;;;1.90;;
6947;SDS011;3513;47.664;9.162;2023-12-22T09:05:42;17.67;;;3.10;;
6947;SDS011;3513;47.664;9.162;2023-12-22T09:08:07;11.13;;;2.00;;
6947;SDS011;3513;47.664;9.162;2023-12-22T09:10:33;9.17;;;2.50;;
6947;SDS011;3513;47.664;9.162;2023-12-22T09:12:58;4.77;;;2.07;;
6947;SDS011;3513;47.664;9.162;2023-12-22T09:15:25;4.47;;;1.87;;
6947;SDS011;3513;47.664;9.162;2023-12-22T09:17:51;11.70;;;2.27;;
6947;SDS011;3513;47.664;9.162;2023-12-22T09:20:18;6.70;;;2.30;;
6947;SDS011;3513;47.664;9.162;2023-12-22T09:22:43;9.33;;;2.67;;
6947;SDS011;3513;47.664;9.162;2023-12-22T09:25:09;11.83;;;2.27;;
6947;SDS011;3513;47.664;9.162;2023-12-22T09:27:34;7.23;;;2.20;;
6947;SDS011;3513;47.664;9.162;2023-12-22T09:30:00;18.20;;;2.50;;
6947;SDS011;3513;47.664;9.162;2023-12-22T09:32:26;10.07;;;3.43;;
6947;SDS011;3513;47.664;9.162;2023-12-22T09:34:51;15.43;;;2.70;;
6947;SDS011;3513;47.664;9.162;2023-12-22T09:37:17;10.73;;;2.27;;
6947;SDS011;3513;47.664;9.162;2023-12-22T09:39:43;8.40;;;2.43;;
6947;SDS011;3513;47.664;9.162;2023-12-22T09:42:08;3.17;;;1.33;;
6947;SDS011;3513;47.664;9.162;2023-12-22T09:44:34;19.57;;;2.90;;
6947;SDS011;3513;47.664;9.162;2023-12-22T09:47:04;9.43;;;1.90;;
6947;SDS011;3513;47.664;9.162;2023-12-22T09:49:32;10.57;;;2.90;;
6947;SDS011;3513;47.664;9.162;2023-12-22T09:52:01;16.90;;;3.03;;
6947;SDS011;3513;47.664;9.162;2023-12-22T09:54:30;11.93;;;2.53;;
6947;SDS011;3513;47.664;9.162;2023-12-22T09:56:57;9.13;;;2.40;;
6947;SDS011;3513;47.664;9.162;2023-12-22T09:59:24;17.23;;;3.13;;
6947;SDS011;3513;47.664;9.162;2023-12-22T10:01:51;19.10;;;3.13;;
6947;SDS011;3513;47.664;9.162;2023-12-22T10:04:19;10.57;;;2.83;;
6947;SDS011;3513;47.664;9.162;2023-12-22T10:06:46;15.67;;;4.10;;
6947;SDS011;3513;47.664;9.162;2023-12-22T10:09:13;7.90;;;2.67;;
6947;SDS011;3513;47.664;9.162;2023-12-22T10:11:41;8.27;;;2.50;;
6947;SDS011;3513;47.664;9.162;2023-12-22T10:14:08;10.90;;;3.20;;
6947;SDS011;3513;47.664;9.162;2023-12-22T10:16:35;8.27;;;3.20;;
6947;SDS011;3513;47.664;9.162;2023-12-22T10:19:01;16.70;;;3.63;;
6947;SDS011;3513;47.664;9.162;2023-12-22T10:21:28;19.50;;;4.03;;
6947;SDS011;3513;47.664;9.162;2023-12-22T10:23:56;15.77;;;3.80;;
6947;SDS011;3513;47.664;9.162;2023-12-22T10:26:22;15.50;;;2.70;;
6947;SDS011;3513;47.664;9.162;2023-12-22T10:28:47;13.23;;;1.90;;
6947;SDS011;3513;47.664;9.162;2023-12-22T10:31:14;19.00;;;2.87;;
6947;SDS011;3513;47.664;9.162;2023-12-22T10:33:39;11.93;;;2.53;;
6947;SDS011;3513;47.664;9.162;2023-12-22T10:36:06;13.60;;;2.33;;
6947;SDS011;3513;47.664;9.162;2023-12-22T10:38:32;12.07;;;1.77;;
6947;SDS011;3513;47.664;9.162;2023-12-22T10:41:00;16.23;;;2.60;;
6947;SDS011;3513;47.664;9.162;2023-12-22T10:43:26;16.30;;;3.90;;
6947;SDS011;3513;47.664;9.162;2023-12-22T10:45:52;15.73;;;3.20;;
6947;SDS011;3513;47.664;9.162;2023-12-22T10:48:17;14.83;;;2.97;;
6947;SDS011;3513;47.664;9.162;2023-12-22T10:50:43;12.00;;;3.23;;
6947;SDS011;3513;47.664;9.162;2023-12-22T10:53:13;9.13;;;1.90;;
6947;SDS011;3513;47.664;9.162;2023-12-22T10:55:39;9.33;;;1.83;;
6947;SDS011;3513;47.664;9.162;2023-12-22T10:58:05;14.50;;;3.00;;
6947;SDS011;3513;47.664;9.162;2023-12-22T11:00:33;13.57;;;2.70;;
6947;SDS011;3513;47.664;9.162;2023-12-22T11:03:07;16.97;;;2.70;;
6947;SDS011;3513;47.664;9.162;2023-12-22T11:05:34;6.83;;;1.83;;
6947;SDS011;3513;47.664;9.162;2023-12-22T11:08:01;8.97;;;2.30;;
6947;SDS011;3513;47.664;9.162;2023-12-22T11:10:31;13.53;;;2.00;;
6947;SDS011;3513;47.664;9.162;2023-12-22T11:12:59;10.07;;;2.30;;
6947;SDS011;3513;47.664;9.162;2023-12-22T11:15:25;8.23;;;1.93;;
6947;SDS011;3513;47.664;9.162;2023-12-22T11:17:52;16.03;;;2.77;;
6947;SDS011;3513;47.664;9.162;2023-12-22T11:20:21;16.20;;;2.17;;
6947;SDS011;3513;47.664;9.162;2023-12-22T11:22:49;11.83;;;2.73;;
6947;SDS011;3513;47.664;9.162;2023-12-22T11:25:16;9.13;;;2.00;;
6947;SDS011;3513;47.664;9.162;2023-12-22T11:27:43;6.93;;;2.20;;
6947;SDS011;3513;47.664;9.162;2023-12-22T11:30:10;11.30;;;2.77;;
6947;SDS011;3513;47.664;9.162;2023-12-22T11:32:37;12.27;;;3.00;;
6947;SDS011;3513;47.664;9.162;2023-12-22T11:35:04;13.50;;;2.13;;
6947;SDS011;3513;47.664;9.162;2023-12-22T11:37:32;13.93;;;2.80;;
6947;SDS011;3513;47.664;9.162;2023-12-22T11:40:01;10.00;;;2.50;;
6947;SDS011;3513;47.664;9.162;2023-12-22T11:42:31;7.57;;;2.00;;
6947;SDS011;3513;47.664;9.162;2023-12-22T11:45:03;9.20;;;1.93;;
6947;SDS011;3513;47.664;9.162;2023-12-22T11:47:30;20.83;;;2.17;;
6947;SDS011;3513;47.664;9.162;2023-12-22T11:49:55;9.83;;;2.53;;
6947;SDS011;3513;47.664;9.162;2023-12-22T11:52:27;11.03;;;2.23;;
6947;SDS011;3513;47.664;9.162;2023-12-22T11:54:57;10.97;;;2.23;;
6947;SDS011;3513;47.664;9.162;2023-12-22T11:59:56;14.47;;;2.40;;
6947;SDS011;3513;47.664;9.162;2023-12-22T12:02:23;13.37;;;2.27;;
6947;SDS011;3513;47.664;9.162;2023-12-22T12:04:52;15.10;;;2.30;;
6947;SDS011;3513;47.664;9.162;2023-12-22T12:10:09;11.07;;;3.10;;
6947;SDS011;3513;47.664;9.162;2023-12-22T12:12:39;9.67;;;2.10;;
6947;SDS011;3513;47.664;9.162;2023-12-22T12:15:09;9.60;;;2.10;;
6947;SDS011;3513;47.664;9.162;2023-12-22T12:17:41;6.70;;;2.00;;
6947;SDS011;3513;47.664;9.162;2023-12-22T12:20:08;9.73;;;1.60;;
6947;SDS011;3513;47.664;9.162;2023-12-22T12:22:35;15.07;;;2.70;;
6947;SDS011;3513;47.664;9.162;2023-12-22T12:25:07;7.57;;;2.00;;
6947;SDS011;3513;47.664;9.162;2023-12-22T12:27:37;6.10;;;2.47;;
6947;SDS011;3513;47.664;9.162;2023-12-22T12:30:06;6.50;;;1.90;;
6947;SDS011;3513;47.664;9.162;2023-12-22T12:32:39;7.27;;;1.40;;
6947;SDS011;3513;47.664;9.162;2023-12-22T12:35:07;3.00;;;1.37;;
6947;SDS011;3513;47.664;9.162;2023-12-22T12:37:33;2.50;;;1.00;;
6947;SDS011;3513;47.664;9.162;2023-12-22T12:39:59;7.23;;;1.70;;
6947;SDS011;3513;47.664;9.162;2023-12-22T12:42:29;6.33;;;1.23;;
6947;SDS011;3513;47.664;9.162;2023-12-22T12:44:58;4.70;;;1.33;;
6947;SDS011;3513;47.664;9.162;2023-12-22T12:47:24;1.43;;;1.13;;
6947;SDS011;3513;47.664;9.162;2023-12-22T12:49:56;8.63;;;1.97;;
6947;SDS011;3513;47.664;9.162;2023-12-22T12:52:24;7.70;;;1.13;;
6947;SDS011;3513;47.664;9.162;2023-12-22T12:54:50;5.63;;;0.87;;
6947;SDS011;3513;47.664;9.162;2023-12-22T12:57:16;4.60;;;1.07;;
6947;SDS011;3513;47.664;9.162;2023-12-22T12:59:49;2.77;;;0.90;;
6947;SDS011;3513;47.664;9.162;2023-12-22T13:02:16;1.40;;;1.00;;
6947;SDS011;3513;47.664;9.162;2023-12-22T13:04:46;1.73;;;0.70;;
6947;SDS011;3513;47.664;9.162;2023-12-22T13:07:12;4.57;;;0.97;;
6947;SDS011;3513;47.664;9.162;2023-12-22T13:09:38;2.50;;;1.00;;
6947;SDS011;3513;47.664;9.162;2023-12-22T13:12:04;2.10;;;1.13;;
6947;SDS011;3513;47.664;9.162;2023-12-22T13:14:30;2.50;;;1.13;;
6947;SDS011;3513;47.664;9.162;2023-12-22T13:16:56;1.23;;;0.90;;
6947;SDS011;3513;47.664;9.162;2023-12-22T13:19:23;4.00;;;1.10;;
6947;SDS011;3513;47.664;9.162;2023-12-22T13:21:55;1.33;;;0.70;;
6947;SDS011;3513;47.664;9.162;2023-12-22T13:24:21;2.20;;;0.70;;
6947;SDS011;3513;47.664;9.162;2023-12-22T13:26:58;6.30;;;0.80;;
6947;SDS011;3513;47.664;9.162;2023-12-22T13:29:52;2.03;;;0.90;;
6947;SDS011;3513;47.664;9.162;2023-12-22T13:32:19;2.07;;;0.87;;
6947;SDS011;3513;47.664;9.162;2023-12-22T13:34:49;4.77;;;1.07;;
6947;SDS011;3513;47.664;9.162;2023-12-22T13:37:19;1.57;;;0.70;;
6947;SDS011;3513;47.664;9.162;2023-12-22T13:39:45;1.70;;;0.70;;
6947;SDS011;3513;47.664;9.162;2023-12-22T13:42:15;3.07;;;0.80;;
6947;SDS011;3513;47.664;9.162;2023-12-22T13:44:45;6.63;;;1.20;;
6947;SDS011;3513;47.664;9.162;2023-12-22T13:47:17;4.00;;;0.90;;
6947;SDS011;3513;47.664;9.162;2023-12-22T13:49:43;1.07;;;0.63;;
6947;SDS011;3513;47.664;9.162;2023-12-22T13:52:26;1.00;;;0.63;;
6947;SDS011;3513;47.664;9.162;2023-12-22T13:54:52;2.83;;;0.70;;
6947;SDS011;3513;47.664;9.162;2023-12-22T13:57:20;1.47;;;0.80;;
6947;SDS011;3513;47.664;9.162;2023-12-22T13:59:47;2.60;;;0.90;;
6947;SDS011;3513;47.664;9.162;2023-12-22T14:02:13;0.60;;;0.50;;
6947;SDS011;3513;47.664;9.162;2023-12-22T14:04:38;2.00;;;0.67;;
6947;SDS011;3513;47.664;9.162;2023-12-22T14:07:04;1.43;;;0.80;;
6947;SDS011;3513;47.664;9.162;2023-12-22T14:09:30;1.93;;;0.90;;
6947;SDS011;3513;47.664;9.162;2023-12-22T14:11:58;2.67;;;1.23;;
6947;SDS011;3513;47.664;9.162;2023-12-22T14:14:24;0.70;;;0.60;;
6947;SDS011;3513;47.664;9.162;2023-12-22T14:16:49;1.60;;;0.70;;
6947;SDS011;3513;47.664;9.162;2023-12-22T14:19:15;0.90;;;0.60;;
6947;SDS011;3513;47.664;9.162;2023-12-22T14:21:41;1.20;;;0.67;;
6947;SDS011;3513;47.664;9.162;2023-12-22T14:24:06;1.10;;;0.70;;
6947;SDS011;3513;47.664;9.162;2023-12-22T14:26:32;1.13;;;0.73;;
6947;SDS011;3513;47.664;9.162;2023-12-22T14:28:58;3.03;;;1.00;;
6947;SDS011;3513;47.664;9.162;2023-12-22T14:31:23;0.93;;;0.63;;
6947;SDS011;3513;47.664;9.162;2023-12-22T14:33:49;1.23;;;0.50;;
6947;SDS011;3513;47.664;9.162;2023-12-22T14:36:14;0.87;;;0.70;;
6947;SDS011;3513;47.664;9.162;2023-12-22T14:38:40;2.80;;;0.90;;
6947;SDS011;3513;47.664;9.162;2023-12-22T14:41:06;3.17;;;0.70;;
6947;SDS011;3513;47.664;9.162;2023-12-22T14:43:31;1.63;;;0.90;;
6947;SDS011;3513;47.664;9.162;2023-12-22T14:45:57;1.73;;;0.80;;
6947;SDS011;3513;47.664;9.162;2023-12-22T14:48:22;4.00;;;0.70;;
6947;SDS011;3513;47.664;9.162;2023-12-22T14:50:48;0.77;;;0.60;;
6947;SDS011;3513;47.664;9.162;2023-12-22T14:53:13;2.03;;;0.80;;
6947;SDS011;3513;47.664;9.162;2023-12-22T14:55:40;1.57;;;0.67;;
6947;SDS011;3513;47.664;9.162;2023-12-22T14:58:06;0.80;;;0.63;;
6947;SDS011;3513;47.664;9.162;2023-12-22T15:00:32;1.00;;;0.77;;
6947;SDS011;3513;47.664;9.162;2023-12-22T15:02:58;1.00;;;0.90;;
6947;SDS011;3513;47.664;9.162;2023-12-22T15:05:23;2.93;;;1.00;;
6947;SDS011;3513;47.664;9.162;2023-12-22T15:07:54;1.00;;;0.77;;
6947;SDS011;3513;47.664;9.162;2023-12-22T15:10:20;5.90;;;0.83;;
6947;SDS011;3513;47.664;9.162;2023-12-22T15:12:46;0.73;;;0.60;;
6947;SDS011;3513;47.664;9.162;2023-12-22T15:15:13;0.90;;;0.60;;